Th11 — LI3236 — position and weather

sailwx.info

Track history (hours):
 
Tides and Currents Weather Stations Pressure Air Temp Water Temp Dewpoint Dewpoint Depression Visibility Wind Speed Wind Dir Waves Ship Positions

Th11

Last reported at 2017-Oct-04 06:24 UTC. Time now 2017-Dec-17 04:13 UTC.
Position N 70°15' E 019°30'.
Warning: this ship's position is months out of date.

Length 8 m.

Type: Pleasure craft. MMSI: 258087620.

Date/timePositionNaut miles runAvg speedWind from/ knotsBaromVisibWave heightAir tempDewpointWater temp
2017-Oct-04 06:24N 70°15' E 019°30'0 0.0
2017-Oct-03 13:41N 70°15' E 019°30'0 0.0
2017-Oct-03 13:29N 70°15' E 019°30'0 0.0
2017-Oct-03 12:59N 70°15' E 019°30'0 0.0
2017-Oct-02 13:39N 70°15' E 019°30'0 0.0
2017-Oct-02 13:30N 70°15' E 019°30'0 0.2
2017-Oct-02 12:59N 70°14' E 019°30'  
2017-Sep-26 16:16N 70°15' E 019°30'0 0.0
2017-Sep-26 09:57N 70°15' E 019°30'1 1.9
2017-Sep-26 09:30N 70°15' E 019°29'611.6
2017-Sep-26 09:00N 70°17' E 019°46'0 0.2
2017-Sep-26 08:30N 70°17' E 019°46'0 0.3
2017-Sep-26 07:59N 70°17' E 019°46'0 0.3
2017-Sep-26 07:29N 70°17' E 019°46'0 0.3
2017-Sep-26 06:59N 70°17' E 019°46'0 0.1
2017-Sep-26 06:25N 70°17' E 019°46'0 0.1
2017-Sep-26 05:58N 70°17' E 019°46'0 0.1
2017-Sep-26 05:28N 70°17' E 019°46'0 0.2
2017-Sep-26 05:00N 70°17' E 019°45'510.5
2017-Sep-26 04:30N 70°16' E 019°30'1 0.1
2017-Sep-25 14:00N 70°15' E 019°30'2 4.1
2017-Sep-25 13:29N 70°14' E 019°24'4 9.0
2017-Sep-25 13:00N 70°17' E 019°34'4 7.2
2017-Sep-25 12:30N 70°17' E 019°44'2 3.7
2017-Sep-25 12:00N 70°17' E 019°50'0 0.2
2017-Sep-25 11:27N 70°17' E 019°50'0 0.7
2017-Sep-25 10:57N 70°17' E 019°50'0 0.3
2017-Sep-25 10:30N 70°17' E 019°50'0 0.1
2017-Sep-25 09:58N 70°17' E 019°50'2 3.1
2017-Sep-25 09:27N 70°16' E 019°45'2 3.9
2017-Sep-25 09:00N 70°16' E 019°50'1 2.0
2017-Sep-25 08:29N 70°15' E 019°53'1 1.7
2017-Sep-25 08:00N 70°16' E 019°54'3 6.4
2017-Sep-25 07:29N 70°17' E 019°45'0 0.3
2017-Sep-25 06:59N 70°17' E 019°45'1 1.7
2017-Sep-25 06:30N 70°17' E 019°43'4 7.2
2017-Sep-25 06:00N 70°17' E 019°33'2 4.5
2017-Sep-25 05:30N 70°15' E 019°30'0 0.0
2017-Sep-24 17:57N 70°15' E 019°30'0 0.0
2017-Sep-24 14:42N 70°15' E 019°30'0 0.0
2017-Sep-24 14:29N 70°15' E 019°30'3 6.9
2017-Sep-24 13:59N 70°17' E 019°22'2 4.6
2017-Sep-24 13:29N 70°18' E 019°17'0 0.4
2017-Sep-24 12:59N 70°18' E 019°17'0 0.8
2017-Sep-24 12:28N 70°19' E 019°18'612.1
2017-Sep-24 12:00N 70°16' E 019°03'1 0.9
2017-Sep-24 10:53N 70°15' E 019°01'3 7.0
2017-Sep-24 10:26N 70°18' E 018°60'0 0.3
2017-Sep-24 09:59N 70°18' E 018°59'0 0.2
2017-Sep-24 09:14N 70°18' E 018°59'0 1.5
2017-Sep-24 09:00N 70°17' E 018°59'0 0.7
2017-Sep-24 08:25N 70°17' E 018°58'0 0.4
2017-Sep-24 07:58N 70°17' E 018°58'0 0.9
2017-Sep-24 07:27N 70°17' E 018°59'0 0.9
2017-Sep-24 06:57N 70°16' E 018°58'1 2.4
2017-Sep-24 06:30N 70°17' E 019°01'  
Track history (hours):
 
Tides and Currents Weather Stations Pressure Air Temp Water Temp Dewpoint Dewpoint Depression Visibility Wind Speed Wind Dir Waves Ship Positions

Th11

Last reported at 2017-Oct-04 06:24 UTC. Time now 2017-Dec-17 04:13 UTC.
Position N 70°15' E 019°30'.
Warning: this ship's position is months out of date.

Length 8 m.

Type: Pleasure craft. MMSI: 258087620.

Date/timePositionNaut miles runAvg speedWind from/ knotsBaromVisibWave heightAir tempDewpointWater temp
2017-Oct-04 06:24N 70°15' E 019°30'0 0.0
2017-Oct-03 13:41N 70°15' E 019°30'0 0.0
2017-Oct-03 13:29N 70°15' E 019°30'0 0.0
2017-Oct-03 12:59N 70°15' E 019°30'0 0.0
2017-Oct-02 13:39N 70°15' E 019°30'0 0.0
2017-Oct-02 13:30N 70°15' E 019°30'0 0.2
2017-Oct-02 12:59N 70°14' E 019°30'  
2017-Sep-26 16:16N 70°15' E 019°30'0 0.0
2017-Sep-26 09:57N 70°15' E 019°30'1 1.9
2017-Sep-26 09:30N 70°15' E 019°29'611.6
2017-Sep-26 09:00N 70°17' E 019°46'0 0.2
2017-Sep-26 08:30N 70°17' E 019°46'0 0.3
2017-Sep-26 07:59N 70°17' E 019°46'0 0.3
2017-Sep-26 07:29N 70°17' E 019°46'0 0.3
2017-Sep-26 06:59N 70°17' E 019°46'0 0.1
2017-Sep-26 06:25N 70°17' E 019°46'0 0.1
2017-Sep-26 05:58N 70°17' E 019°46'0 0.1
2017-Sep-26 05:28N 70°17' E 019°46'0 0.2
2017-Sep-26 05:00N 70°17' E 019°45'510.5
2017-Sep-26 04:30N 70°16' E 019°30'1 0.1
2017-Sep-25 14:00N 70°15' E 019°30'2 4.1
2017-Sep-25 13:29N 70°14' E 019°24'4 9.0
2017-Sep-25 13:00N 70°17' E 019°34'4 7.2
2017-Sep-25 12:30N 70°17' E 019°44'2 3.7
2017-Sep-25 12:00N 70°17' E 019°50'0 0.2
2017-Sep-25 11:27N 70°17' E 019°50'0 0.7
2017-Sep-25 10:57N 70°17' E 019°50'0 0.3
2017-Sep-25 10:30N 70°17' E 019°50'0 0.1
2017-Sep-25 09:58N 70°17' E 019°50'2 3.1
2017-Sep-25 09:27N 70°16' E 019°45'2 3.9
2017-Sep-25 09:00N 70°16' E 019°50'1 2.0
2017-Sep-25 08:29N 70°15' E 019°53'1 1.7
2017-Sep-25 08:00N 70°16' E 019°54'3 6.4
2017-Sep-25 07:29N 70°17' E 019°45'0 0.3
2017-Sep-25 06:59N 70°17' E 019°45'1 1.7
2017-Sep-25 06:30N 70°17' E 019°43'4 7.2
2017-Sep-25 06:00N 70°17' E 019°33'2 4.5
2017-Sep-25 05:30N 70°15' E 019°30'0 0.0
2017-Sep-24 17:57N 70°15' E 019°30'0 0.0
2017-Sep-24 14:42N 70°15' E 019°30'0 0.0
2017-Sep-24 14:29N 70°15' E 019°30'3 6.9
2017-Sep-24 13:59N 70°17' E 019°22'2 4.6
2017-Sep-24 13:29N 70°18' E 019°17'0 0.4
2017-Sep-24 12:59N 70°18' E 019°17'0 0.8
2017-Sep-24 12:28N 70°19' E 019°18'612.1
2017-Sep-24 12:00N 70°16' E 019°03'1 0.9
2017-Sep-24 10:53N 70°15' E 019°01'3 7.0
2017-Sep-24 10:26N 70°18' E 018°60'0 0.3
2017-Sep-24 09:59N 70°18' E 018°59'0 0.2
2017-Sep-24 09:14N 70°18' E 018°59'0 1.5
2017-Sep-24 09:00N 70°17' E 018°59'0 0.7
2017-Sep-24 08:25N 70°17' E 018°58'0 0.4
2017-Sep-24 07:58N 70°17' E 018°58'0 0.9
2017-Sep-24 07:27N 70°17' E 018°59'0 0.9
2017-Sep-24 06:57N 70°16' E 018°58'1 2.4
2017-Sep-24 06:30N 70°17' E 019°01'  

Dump ship's entire track history